createdAt,value
2023-01-07T00:01:37.323Z,13.57
2023-01-07T00:04:06.154Z,16.48
2023-01-07T00:06:35.319Z,16.63
2023-01-07T00:09:03.744Z,15.15
2023-01-07T00:11:33.077Z,14.90
2023-01-07T00:14:01.003Z,19.38
2023-01-07T00:16:30.130Z,14.45
2023-01-07T00:18:58.547Z,16.38
2023-01-07T00:21:26.528Z,13.52
2023-01-07T00:23:59.280Z,15.87
2023-01-07T00:26:29.470Z,10.90
2023-01-07T00:28:56.085Z,13.63
2023-01-07T00:31:26.566Z,17.48
2023-01-07T00:33:53.962Z,11.80
2023-01-07T00:36:21.912Z,13.07
2023-01-07T00:39:14.296Z,14.98
2023-01-07T00:42:01.637Z,12.00
2023-01-07T00:44:29.468Z,11.45
2023-01-07T00:46:56.082Z,13.20
2023-01-07T00:49:24.483Z,14.27
2023-01-07T00:51:51.819Z,11.55
2023-01-07T00:54:18.509Z,13.40
2023-01-07T00:56:45.081Z,14.07
2023-01-07T00:59:12.013Z,13.32
2023-01-07T01:01:38.730Z,13.07
2023-01-07T01:04:06.337Z,13.20
2023-01-07T01:06:32.958Z,17.80
2023-01-07T01:08:59.576Z,10.82
2023-01-07T01:11:26.217Z,10.68
2023-01-07T01:13:52.863Z,9.07
2023-01-07T01:16:19.547Z,12.77
2023-01-07T01:18:46.572Z,14.63
2023-01-07T01:21:15.176Z,15.00
2023-01-07T01:23:43.022Z,10.73
2023-01-07T01:26:12.992Z,12.47
2023-01-07T01:28:40.165Z,12.10
2023-01-07T01:31:08.250Z,13.27
2023-01-07T01:33:35.081Z,14.20
2023-01-07T01:36:06.555Z,12.63
2023-01-07T01:38:33.188Z,10.40
2023-01-07T01:40:59.844Z,13.48
2023-01-07T01:43:26.423Z,13.38
2023-01-07T01:45:53.816Z,14.77
2023-01-07T01:48:21.377Z,16.95
2023-01-07T01:50:50.469Z,14.33
2023-01-07T01:53:23.299Z,17.98
2023-01-07T01:55:55.729Z,13.10
2023-01-07T01:58:46.652Z,15.32
2023-01-07T02:01:13.451Z,20.15
2023-01-07T02:03:40.169Z,15.73
2023-01-07T02:06:10.602Z,15.10
2023-01-07T02:08:37.222Z,11.43
2023-01-07T02:11:26.383Z,15.85
2023-01-07T02:14:03.646Z,16.52
2023-01-07T02:16:43.575Z,15.27
2023-01-07T02:19:41.139Z,12.40
2023-01-07T02:22:16.598Z,13.77
2023-01-07T02:24:55.383Z,18.95
2023-01-07T02:27:28.752Z,13.25
2023-01-07T02:30:18.252Z,15.27
2023-01-07T02:33:08.336Z,18.35
2023-01-07T02:36:04.406Z,12.55
2023-01-07T02:39:07.810Z,14.70
2023-01-07T02:42:02.766Z,21.80
2023-01-07T02:45:26.608Z,17.70
2023-01-07T02:48:08.988Z,12.00
2023-01-07T02:50:35.616Z,14.85
2023-01-07T02:53:02.190Z,15.90
2023-01-07T02:55:40.736Z,14.90
2023-01-07T02:58:16.124Z,12.83
2023-01-07T03:01:11.836Z,12.52
2023-01-07T03:03:57.401Z,13.55
2023-01-07T03:06:37.909Z,15.50
2023-01-07T03:09:40.019Z,16.33
2023-01-07T03:12:25.044Z,12.50
2023-01-07T03:15:03.352Z,13.65
2023-01-07T03:17:37.260Z,15.23
2023-01-07T03:20:05.841Z,13.88
2023-01-07T03:22:34.653Z,15.18
2023-01-07T03:25:03.455Z,13.63
2023-01-07T03:27:34.477Z,15.45
2023-01-07T03:30:08.904Z,9.80
2023-01-07T03:32:55.535Z,15.85
2023-01-07T03:35:24.365Z,12.38
2023-01-07T03:37:53.028Z,13.20
2023-01-07T03:40:20.520Z,14.48
2023-01-07T03:42:48.983Z,10.50
2023-01-07T03:45:21.186Z,15.02
2023-01-07T03:47:51.195Z,12.15
2023-01-07T03:50:19.015Z,13.20
2023-01-07T03:52:46.300Z,12.68
2023-01-07T03:55:12.870Z,13.85
2023-01-07T03:57:39.490Z,9.30
2023-01-07T04:00:08.363Z,11.10
2023-01-07T04:02:35.017Z,15.67
2023-01-07T04:05:01.605Z,15.95
2023-01-07T04:07:28.203Z,12.90
2023-01-07T04:09:54.822Z,11.18
2023-01-07T04:12:21.442Z,13.32
2023-01-07T04:14:48.012Z,13.90
2023-01-07T04:17:14.616Z,16.98
2023-01-07T04:19:41.281Z,10.93
2023-01-07T04:22:10.401Z,9.93
2023-01-07T04:24:37.355Z,12.57
2023-01-07T04:27:04.302Z,12.90
2023-01-07T04:29:31.224Z,11.30
2023-01-07T04:31:57.869Z,11.98
2023-01-07T04:34:24.594Z,10.93
2023-01-07T04:36:51.379Z,9.95
2023-01-07T04:39:18.030Z,8.40
2023-01-07T04:41:44.828Z,12.07
2023-01-07T04:44:11.771Z,14.63
2023-01-07T04:46:38.486Z,10.15
2023-01-07T04:49:05.229Z,8.00
2023-01-07T04:51:31.914Z,10.37
2023-01-07T04:53:58.559Z,10.38
2023-01-07T04:56:25.227Z,11.27
2023-01-07T04:58:51.917Z,10.18
2023-01-07T05:01:18.734Z,11.10
2023-01-07T05:03:45.499Z,12.67
2023-01-07T05:06:12.249Z,9.27
2023-01-07T05:08:38.946Z,8.05
2023-01-07T05:11:05.898Z,9.77
2023-01-07T05:13:35.186Z,11.70
2023-01-07T05:16:03.175Z,11.30
2023-01-07T05:18:30.276Z,11.02
2023-01-07T05:20:56.838Z,10.18
2023-01-07T05:23:23.433Z,9.60
2023-01-07T05:25:50.073Z,8.52
2023-01-07T05:28:16.699Z,9.30
2023-01-07T05:30:43.404Z,7.88
2023-01-07T05:33:10.000Z,9.55
2023-01-07T05:35:36.646Z,14.60
2023-01-07T05:38:03.398Z,10.23
2023-01-07T05:40:30.194Z,9.23
2023-01-07T05:42:56.763Z,8.57
2023-01-07T05:45:23.402Z,8.35
2023-01-07T05:47:49.984Z,11.70
2023-01-07T05:50:16.625Z,10.23
2023-01-07T05:52:43.366Z,6.77
2023-01-07T05:55:10.068Z,9.95
2023-01-07T05:57:36.696Z,9.80
2023-01-07T06:00:04.558Z,7.97
2023-01-07T06:02:31.153Z,9.85
2023-01-07T06:04:57.808Z,7.70
2023-01-07T06:07:24.433Z,15.82
2023-01-07T06:09:51.020Z,9.57
2023-01-07T06:12:17.607Z,8.90
2023-01-07T06:14:44.245Z,8.75
2023-01-07T06:17:10.865Z,7.20
2023-01-07T06:19:37.833Z,9.27
2023-01-07T06:22:04.471Z,10.43
2023-01-07T06:24:31.023Z,7.70
2023-01-07T06:26:57.745Z,8.10
2023-01-07T06:29:24.359Z,11.40
2023-01-07T06:31:50.959Z,7.53
2023-01-07T06:34:17.588Z,6.43
2023-01-07T06:36:44.304Z,7.95
2023-01-07T06:39:11.644Z,7.07
2023-01-07T06:41:38.608Z,8.07
2023-01-07T06:44:05.359Z,5.57
2023-01-07T06:46:32.394Z,6.18
2023-01-07T06:48:59.099Z,6.18
2023-01-07T06:51:25.685Z,5.13
2023-01-07T06:53:52.373Z,8.37
2023-01-07T06:56:19.002Z,5.70
2023-01-07T06:58:45.616Z,9.32
2023-01-07T07:01:12.371Z,4.60
2023-01-07T07:03:39.062Z,8.10
2023-01-07T07:06:06.039Z,7.93
2023-01-07T07:08:32.666Z,6.07
2023-01-07T07:10:59.287Z,5.75
2023-01-07T07:13:25.927Z,6.05
2023-01-07T07:15:52.599Z,5.38
2023-01-07T07:18:19.584Z,8.03
2023-01-07T07:20:47.074Z,7.93
2023-01-07T07:23:13.738Z,9.10
2023-01-07T07:25:40.429Z,5.07
2023-01-07T07:28:07.072Z,12.23
2023-01-07T07:30:47.242Z,4.70
2023-01-07T07:33:15.465Z,7.95
2023-01-07T07:35:42.367Z,4.90
2023-01-07T07:38:09.300Z,7.63
2023-01-07T07:40:36.418Z,5.28
2023-01-07T07:43:10.603Z,5.83
2023-01-07T07:45:42.486Z,3.88
2023-01-07T07:48:10.356Z,6.63
2023-01-07T07:50:37.030Z,4.28
2023-01-07T07:53:03.875Z,4.75
2023-01-07T07:55:30.715Z,7.53
2023-01-07T07:57:58.295Z,3.35
2023-01-07T08:00:25.049Z,5.43
2023-01-07T08:02:51.712Z,4.25
2023-01-07T08:05:18.619Z,3.05
2023-01-07T08:07:45.308Z,5.37
2023-01-07T08:10:11.932Z,3.70
2023-01-07T08:12:39.054Z,4.80
2023-01-07T08:15:07.291Z,3.20
2023-01-07T08:17:34.049Z,4.13
2023-01-07T08:20:00.614Z,3.77
2023-01-07T08:22:27.261Z,3.85
2023-01-07T08:24:53.979Z,3.55
2023-01-07T08:27:20.966Z,3.55
2023-01-07T08:29:47.649Z,4.80
2023-01-07T08:32:14.215Z,7.83
2023-01-07T08:34:40.924Z,3.63
2023-01-07T08:37:07.539Z,4.05
2023-01-07T08:39:34.205Z,3.03
2023-01-07T08:42:00.852Z,5.25
2023-01-07T08:44:27.521Z,4.73
2023-01-07T08:46:54.410Z,3.35
2023-01-07T08:49:21.724Z,3.15
2023-01-07T08:51:48.383Z,3.28
2023-01-07T08:54:15.188Z,5.05
2023-01-07T08:56:41.777Z,3.33
2023-01-07T08:59:08.426Z,5.25
2023-01-07T09:01:35.201Z,2.63
2023-01-07T09:04:01.910Z,8.65
2023-01-07T09:06:28.472Z,3.28
2023-01-07T09:08:55.055Z,4.47
2023-01-07T09:11:21.968Z,4.28
2023-01-07T09:13:48.546Z,3.05
2023-01-07T09:16:15.217Z,3.72
2023-01-07T09:18:41.863Z,3.00
2023-01-07T09:21:08.489Z,2.53
2023-01-07T09:23:35.233Z,3.20
2023-01-07T09:26:01.878Z,4.10
2023-01-07T09:28:28.663Z,2.30
2023-01-07T09:30:56.788Z,4.65
2023-01-07T09:33:24.035Z,2.27
2023-01-07T09:35:50.665Z,2.28
2023-01-07T09:38:17.359Z,4.15
2023-01-07T09:40:45.280Z,2.92
2023-01-07T09:43:25.077Z,2.90
2023-01-07T09:45:58.359Z,4.10
2023-01-07T09:48:36.862Z,3.08
2023-01-07T09:51:23.741Z,2.28
2023-01-07T09:53:52.707Z,2.65
2023-01-07T09:56:29.376Z,3.35
2023-01-07T09:58:58.177Z,2.80
2023-01-07T10:02:07.605Z,6.05
2023-01-07T10:04:42.819Z,8.65
2023-01-07T10:07:27.872Z,2.50
2023-01-07T10:10:05.746Z,3.75
2023-01-07T10:12:54.617Z,1.77
2023-01-07T10:16:09.111Z,2.60
2023-01-07T10:18:57.563Z,2.35
2023-01-07T10:21:53.463Z,2.90
2023-01-07T10:24:33.679Z,3.35
2023-01-07T10:27:16.403Z,2.13
2023-01-07T10:29:58.982Z,2.78
2023-01-07T10:32:31.637Z,2.75
2023-01-07T10:34:59.710Z,3.67
2023-01-07T10:37:32.684Z,2.60
2023-01-07T10:40:08.035Z,2.73
2023-01-07T10:43:02.370Z,3.45
2023-01-07T10:45:44.876Z,2.53
2023-01-07T10:48:47.529Z,2.42
2023-01-07T10:51:41.327Z,2.72
2023-01-07T10:54:13.857Z,4.40
2023-01-07T10:56:46.379Z,4.45
2023-01-07T10:59:17.276Z,3.42
2023-01-07T11:01:53.327Z,2.10
2023-01-07T11:04:20.737Z,3.38
2023-01-07T11:07:08.226Z,4.13
2023-01-07T11:09:39.841Z,2.78
2023-01-07T11:12:35.695Z,2.40
2023-01-07T11:15:08.966Z,1.90
2023-01-07T11:18:18.476Z,2.58
2023-01-07T11:20:51.900Z,6.17
2023-01-07T11:23:30.685Z,1.77
2023-01-07T11:26:17.395Z,2.30
2023-01-07T11:28:56.626Z,2.80
2023-01-07T11:31:43.645Z,4.20
2023-01-07T11:34:34.647Z,3.30
2023-01-07T11:37:01.827Z,3.95
2023-01-07T11:39:31.740Z,3.40
2023-01-07T11:42:25.567Z,4.53
2023-01-07T11:45:12.408Z,2.47
2023-01-07T11:47:45.769Z,2.20
2023-01-07T11:50:28.552Z,2.35
2023-01-07T11:53:01.744Z,1.98
2023-01-07T11:55:29.692Z,4.20
2023-01-07T11:58:27.683Z,1.88
2023-01-07T12:00:43.633Z,2.07
2023-01-07T12:03:12.611Z,2.83
2023-01-07T12:05:41.442Z,3.28
2023-01-07T12:08:19.197Z,6.25
2023-01-07T12:10:45.970Z,2.47
2023-01-07T12:13:23.384Z,1.97
2023-01-07T12:15:53.940Z,2.13
2023-01-07T12:18:42.223Z,2.75
2023-01-07T12:21:27.439Z,3.63
2023-01-07T12:24:12.739Z,1.90
2023-01-07T12:27:06.201Z,2.10
2023-01-07T12:29:54.240Z,3.60
2023-01-07T12:32:30.225Z,2.03
2023-01-07T12:35:14.341Z,1.92
2023-01-07T12:37:56.689Z,2.08
2023-01-07T12:40:34.303Z,2.47
2023-01-07T12:43:11.290Z,2.05
2023-01-07T12:45:52.275Z,2.67
2023-01-07T12:48:36.084Z,2.95
2023-01-07T12:51:10.546Z,3.13
2023-01-07T12:53:42.331Z,2.50
2023-01-07T12:56:24.020Z,2.30
2023-01-07T12:58:56.274Z,2.33
2023-01-07T13:01:28.778Z,3.78
2023-01-07T13:04:16.729Z,4.30
2023-01-07T13:06:52.976Z,2.23
2023-01-07T13:09:30.617Z,1.65
2023-01-07T13:12:41.612Z,10.60
2023-01-07T13:15:35.742Z,4.20
2023-01-07T13:18:15.372Z,2.25
2023-01-07T13:20:53.860Z,2.37
2023-01-07T13:23:48.480Z,2.03
2023-01-07T13:27:11.908Z,2.13
2023-01-07T13:30:08.028Z,2.53
2023-01-07T13:32:46.497Z,2.58
2023-01-07T13:35:47.895Z,4.50
2023-01-07T13:38:32.793Z,3.05
2023-01-07T13:41:08.409Z,2.05
2023-01-07T13:44:08.731Z,3.22
2023-01-07T13:46:39.844Z,2.50
2023-01-07T13:49:19.944Z,2.17
2023-01-07T13:51:47.585Z,2.42
2023-01-07T13:54:14.168Z,1.90
2023-01-07T13:56:41.121Z,3.72
2023-01-07T13:59:29.096Z,4.25
2023-01-07T14:02:17.137Z,1.90
2023-01-07T14:05:22.097Z,2.75
2023-01-07T14:08:00.667Z,2.30
2023-01-07T14:10:38.121Z,2.20
2023-01-07T14:13:22.804Z,2.63
2023-01-07T14:15:56.120Z,2.67
2023-01-07T14:18:36.687Z,4.45
2023-01-07T14:21:34.515Z,3.60
2023-01-07T14:24:33.606Z,3.22
2023-01-07T14:27:29.049Z,4.53
2023-01-07T14:30:02.923Z,4.50
2023-01-07T14:32:37.969Z,2.67
2023-01-07T14:35:10.613Z,2.42
2023-01-07T14:37:42.834Z,2.03
2023-01-07T14:40:30.694Z,2.78
2023-01-07T14:42:58.092Z,3.63
2023-01-07T14:45:36.596Z,3.85
2023-01-07T14:48:27.916Z,2.97
2023-01-07T14:51:27.206Z,2.38
2023-01-07T14:54:25.119Z,3.20
2023-01-07T14:57:07.367Z,3.63
2023-01-07T15:00:03.438Z,6.25
2023-01-07T15:02:44.002Z,2.90
2023-01-07T15:05:28.718Z,3.00
2023-01-07T15:08:20.602Z,2.88
2023-01-07T15:11:26.569Z,3.17
2023-01-07T15:14:20.180Z,4.07
2023-01-07T15:16:49.147Z,3.33
2023-01-07T15:19:16.250Z,3.42
2023-01-07T15:21:54.916Z,3.35
2023-01-07T15:24:26.476Z,2.87
2023-01-07T15:26:56.108Z,3.10
2023-01-07T15:29:41.633Z,3.42
2023-01-07T15:32:19.372Z,2.63
2023-01-07T15:34:47.168Z,3.33
2023-01-07T15:37:16.103Z,3.50
2023-01-07T15:39:50.241Z,4.68
2023-01-07T15:42:21.194Z,4.43
2023-01-07T15:44:56.361Z,5.45
2023-01-07T15:47:37.513Z,2.88
2023-01-07T15:50:20.987Z,2.80
2023-01-07T15:53:18.523Z,3.20
2023-01-07T15:55:51.814Z,3.83
2023-01-07T15:58:36.967Z,3.20
2023-01-07T16:01:04.636Z,5.97
2023-01-07T16:03:32.835Z,3.27
2023-01-07T16:06:00.393Z,2.83
2023-01-07T16:08:31.507Z,4.53
2023-01-07T16:10:59.960Z,3.80
2023-01-07T16:13:26.759Z,3.72
2023-01-07T16:15:55.743Z,5.47
2023-01-07T16:18:22.464Z,3.10
2023-01-07T16:20:59.008Z,3.00
2023-01-07T16:23:28.076Z,4.18
2023-01-07T16:26:05.958Z,3.03
2023-01-07T16:28:39.354Z,5.30
2023-01-07T16:31:09.189Z,2.85
2023-01-07T16:33:37.668Z,3.17
2023-01-07T16:36:14.107Z,3.10
2023-01-07T16:38:41.411Z,3.15
2023-01-07T16:41:19.012Z,3.83
2023-01-07T16:43:45.751Z,3.33
2023-01-07T16:46:38.798Z,3.75
2023-01-07T16:49:11.217Z,5.07
2023-01-07T16:52:02.767Z,3.58
2023-01-07T16:54:33.212Z,3.90
2023-01-07T16:57:06.828Z,6.28
2023-01-07T16:59:49.467Z,4.25
2023-01-07T17:02:54.834Z,3.65
2023-01-07T17:05:24.824Z,4.28
2023-01-07T17:07:53.362Z,5.60
2023-01-07T17:10:32.086Z,4.55
2023-01-07T17:13:26.315Z,5.18
2023-01-07T17:16:22.074Z,3.15
2023-01-07T17:18:48.843Z,4.55
2023-01-07T17:21:37.244Z,3.93
2023-01-07T17:24:04.348Z,3.53
2023-01-07T17:26:40.623Z,4.63
2023-01-07T17:29:12.951Z,6.05
2023-01-07T17:31:40.540Z,4.88
2023-01-07T17:34:11.116Z,4.93
2023-01-07T17:36:37.834Z,4.60
2023-01-07T17:39:04.556Z,5.90
2023-01-07T17:41:53.445Z,4.95
2023-01-07T17:44:20.103Z,3.50
2023-01-07T17:46:46.716Z,4.60
2023-01-07T17:49:13.496Z,5.78
2023-01-07T17:51:45.370Z,4.45
2023-01-07T17:54:23.898Z,7.13
2023-01-07T17:56:52.001Z,4.07
2023-01-07T17:59:21.617Z,5.17
2023-01-07T18:01:49.377Z,5.97
2023-01-07T18:04:17.532Z,3.78
2023-01-07T18:06:45.300Z,4.60
2023-01-07T18:09:13.480Z,5.20
2023-01-07T18:12:02.153Z,3.60
2023-01-07T18:14:28.887Z,3.90
2023-01-07T18:16:55.571Z,4.13
2023-01-07T18:19:22.166Z,5.25
2023-01-07T18:21:48.843Z,4.97
2023-01-07T18:24:21.007Z,4.57
2023-01-07T18:26:47.916Z,5.25
2023-01-07T18:29:14.640Z,6.00
2023-01-07T18:31:43.393Z,3.85
2023-01-07T18:34:12.031Z,3.53
2023-01-07T18:36:38.910Z,6.10
2023-01-07T18:39:07.056Z,7.05
2023-01-07T18:41:34.098Z,5.20
2023-01-07T18:44:00.793Z,5.25
2023-01-07T18:46:27.519Z,5.07
2023-01-07T18:48:54.918Z,5.83
2023-01-07T18:51:21.665Z,4.00
2023-01-07T18:53:48.297Z,5.70
2023-01-07T18:56:14.960Z,5.10
2023-01-07T18:58:43.975Z,4.90
2023-01-07T19:01:11.234Z,4.10
2023-01-07T19:03:38.611Z,6.18
2023-01-07T19:06:07.367Z,4.22
2023-01-07T19:08:34.010Z,6.72
2023-01-07T19:11:00.679Z,6.45
2023-01-07T19:13:27.305Z,4.33
2023-01-07T19:15:53.871Z,4.63
2023-01-07T19:18:20.479Z,5.45
2023-01-07T19:20:47.119Z,4.68
2023-01-07T19:23:13.767Z,5.95
2023-01-07T19:25:40.359Z,4.57
2023-01-07T19:28:06.927Z,4.38
2023-01-07T19:30:33.582Z,6.80
2023-01-07T19:33:00.899Z,4.55
2023-01-07T19:35:28.017Z,6.60
2023-01-07T19:37:54.635Z,5.63
2023-01-07T19:40:21.249Z,10.00
2023-01-07T19:42:48.749Z,4.97
2023-01-07T19:45:15.388Z,5.75
2023-01-07T19:47:42.531Z,4.78
2023-01-07T19:50:09.529Z,3.97
2023-01-07T19:52:36.206Z,5.00
2023-01-07T19:55:08.177Z,8.77
2023-01-07T19:57:34.847Z,6.25
2023-01-07T20:00:01.748Z,4.78
2023-01-07T20:02:28.482Z,4.10
2023-01-07T20:04:55.162Z,4.38
2023-01-07T20:07:21.785Z,5.25
2023-01-07T20:09:48.436Z,5.18
2023-01-07T20:12:15.145Z,4.25
2023-01-07T20:14:42.232Z,4.00
2023-01-07T20:17:08.887Z,10.57
2023-01-07T20:19:35.498Z,5.38
2023-01-07T20:22:02.057Z,7.00
2023-01-07T20:24:30.191Z,4.90
2023-01-07T20:26:56.925Z,6.13
2023-01-07T20:29:23.544Z,5.57
2023-01-07T20:31:50.241Z,6.13
2023-01-07T20:34:16.989Z,4.68
2023-01-07T20:36:43.563Z,4.45
2023-01-07T20:39:10.186Z,5.50
2023-01-07T20:41:38.529Z,5.60
2023-01-07T20:44:08.475Z,4.43
2023-01-07T20:46:35.159Z,5.53
2023-01-07T20:49:02.290Z,5.30
2023-01-07T20:51:28.911Z,5.13
2023-01-07T20:53:56.142Z,4.90
2023-01-07T20:56:23.916Z,5.82
2023-01-07T20:58:50.980Z,4.10
2023-01-07T21:01:20.427Z,6.22
2023-01-07T21:03:47.374Z,7.80
2023-01-07T21:06:17.320Z,7.57
2023-01-07T21:08:45.311Z,5.22
2023-01-07T21:11:14.176Z,4.63
2023-01-07T21:13:41.111Z,5.18
2023-01-07T21:16:07.918Z,7.10
2023-01-07T21:18:34.889Z,5.32
2023-01-07T21:21:07.300Z,5.20
2023-01-07T21:23:34.622Z,4.60
2023-01-07T21:26:01.194Z,4.93
2023-01-07T21:28:27.776Z,5.43
2023-01-07T21:30:54.412Z,6.45
2023-01-07T21:33:21.087Z,4.97
2023-01-07T21:35:47.829Z,5.35
2023-01-07T21:38:14.850Z,4.55
2023-01-07T21:40:42.005Z,4.83
2023-01-07T21:43:08.755Z,5.43
2023-01-07T21:45:36.828Z,5.63
2023-01-07T21:48:03.636Z,5.45
2023-01-07T21:50:30.216Z,3.75
2023-01-07T21:52:57.205Z,5.17
2023-01-07T21:55:23.849Z,4.35
2023-01-07T21:57:50.485Z,8.38
2023-01-07T22:00:17.261Z,5.47
2023-01-07T22:02:44.669Z,5.10
2023-01-07T22:05:11.909Z,5.57
2023-01-07T22:07:39.121Z,5.18
2023-01-07T22:10:06.173Z,3.78
2023-01-07T22:12:32.930Z,5.85
2023-01-07T22:14:59.676Z,7.47
2023-01-07T22:17:26.696Z,5.67
2023-01-07T22:19:53.302Z,6.95
2023-01-07T22:22:20.924Z,4.47
2023-01-07T22:24:47.546Z,6.72
2023-01-07T22:27:14.300Z,5.15
2023-01-07T22:29:42.288Z,6.57
2023-01-07T22:32:08.951Z,4.53
2023-01-07T22:34:35.609Z,6.25
2023-01-07T22:37:15.032Z,3.83
2023-01-07T22:39:46.212Z,4.43
2023-01-07T22:42:22.402Z,4.57
2023-01-07T22:44:53.881Z,3.95
2023-01-07T22:47:25.308Z,4.13
2023-01-07T22:49:53.692Z,4.97
2023-01-07T22:52:20.687Z,4.72
2023-01-07T22:54:47.457Z,5.67
2023-01-07T22:57:14.428Z,5.38
2023-01-07T22:59:41.051Z,6.43
2023-01-07T23:02:07.674Z,4.50
2023-01-07T23:04:34.347Z,4.82
2023-01-07T23:07:01.057Z,4.93
2023-01-07T23:09:27.691Z,4.95
2023-01-07T23:11:59.279Z,4.70
2023-01-07T23:14:27.396Z,5.63
2023-01-07T23:16:54.560Z,5.80
2023-01-07T23:19:22.078Z,8.40
2023-01-07T23:21:51.769Z,4.55
2023-01-07T23:24:18.672Z,6.07
2023-01-07T23:26:46.431Z,5.53
2023-01-07T23:29:13.042Z,5.50
2023-01-07T23:31:39.800Z,7.27
2023-01-07T23:34:06.747Z,6.00
2023-01-07T23:36:35.174Z,6.75
2023-01-07T23:39:01.793Z,6.45
2023-01-07T23:41:28.441Z,6.88
2023-01-07T23:43:55.054Z,5.87
2023-01-07T23:46:21.686Z,7.68
2023-01-07T23:48:48.340Z,10.27
2023-01-07T23:51:17.569Z,5.00
2023-01-07T23:53:45.578Z,6.07
2023-01-07T23:56:12.953Z,6.40
2023-01-07T23:58:39.588Z,7.45
